Observation data for Roaring Springs on 11/14/2019      Previous  Date       Current Mesonet Observations  Soil Data  Daily Summary Page  Observations in Plain Language
KRRS 140600Z 33012KT 05/02 A3006 RMK A01 T00470015  RH  081%=      5-min Rain = 0
KRRS 140605Z 33013KT 05/01 A3006 RMK A01 T00460014  RH  081%=      5-min Rain = 0
KRRS 140610Z 33012KT 04/01 A3006 RMK A01 T00440013  RH  081%=      5-min Rain = 0
KRRS 140615Z 34010KT 04/01 A3007 RMK A01 T00420012  RH  082%=      5-min Rain = 0
KRRS 140620Z 35009KT 04/01 A3007 RMK A01 T00400011  RH  083%=      5-min Rain = 0
KRRS 140625Z 35009KT 04/01 A3008 RMK A01 T00370010  RH  084%=      5-min Rain = 0
KRRS 140630Z 34009KT 04/01 A3008 RMK A01 T00360009  RH  084%=      5-min Rain = 0
KRRS 140635Z 34010KT 03/01 A3008 RMK A01 T00340008  RH  084%=      5-min Rain = 0
KRRS 140640Z 34010KT 03/01 A3008 RMK A01 T00320007  RH  084%=      5-min Rain = 0
KRRS 140645Z 34010KT 03/01 A3009 RMK A01 T00310005  RH  084%=      5-min Rain = 0
KRRS 140650Z 34010KT 03/00 A3009 RMK A01 T00300004  RH  084%=      5-min Rain = 0
KRRS 140655Z 34010KT 03/00 A3009 RMK A01 T00280003  RH  085%=      5-min Rain = 0
KRRS 140700Z 34010KT 03/00 A3009 RMK A01 T00260002  RH  085%=      5-min Rain = 0
KRRS 140705Z 34010KT 03/00 A301 RMK A01 T00250001  RH  085%=      5-min Rain = 0
KRRS 140710Z 35009KT 02/00 A301 RMK A01 T00240001  RH  085%=      5-min Rain = 0
KRRS 140715Z 35009KT 02/00 A3011 RMK A01 T00230000  RH  086%=      5-min Rain = 0
KRRS 140720Z 35009KT 02/00 A3011 RMK A01 T002200-0  RH  086%=      5-min Rain = 0
KRRS 140725Z 35008KT 02/M00 A3011 RMK A01 T00211001  RH  087%=      5-min Rain = 0
KRRS 140730Z 35008KT 02/M00 A3011 RMK A01 T00191001  RH  087%=      5-min Rain = 0
KRRS 140735Z 34009KT 02/M00 A3012 RMK A01 T00191002  RH  087%=      5-min Rain = 0
KRRS 140740Z 34009KT 02/M00 A3012 RMK A01 T00191003  RH  086%=      5-min Rain = 0
KRRS 140745Z 35009KT 02/M00 A3012 RMK A01 T00181004  RH  086%=      5-min Rain = 0
KRRS 140750Z 35009KT 02/M00 A3013 RMK A01 T00181004  RH  086%=      5-min Rain = 0
KRRS 140755Z 35009KT 02/M00 A3013 RMK A01 T00181004  RH  086%=      5-min Rain = 0
KRRS 140800Z 35008KT 02/M00 A3013 RMK A01 T00181004  RH  086%=      5-min Rain = 0
KRRS 140805Z 34009KT 02/M00 A3013 RMK A01 T00171004  RH  086%=      5-min Rain = 0
KRRS 140810Z 34009KT 02/M00 A3014 RMK A01 T00171004  RH  087%=      5-min Rain = 0
KRRS 140815Z 35009KT 02/M00 A3014 RMK A01 T00181004  RH  086%=      5-min Rain = 0
KRRS 140820Z 34009KT 02/M00 A3014 RMK A01 T00191004  RH  086%=      5-min Rain = 0
KRRS 140825Z 34009KT 02/M00 A3015 RMK A01 T00201004  RH  085%=      5-min Rain = 0
KRRS 140830Z 35009KT 02/M00 A3015 RMK A01 T00201004  RH  085%=      5-min Rain = 0
KRRS 140835Z 35010KT 02/M01 A3015 RMK A01 T00211005  RH  084%=      5-min Rain = 0
KRRS 140840Z 35009KT 02/M01 A3015 RMK A01 T00211005  RH  084%=      5-min Rain = 0
KRRS 140845Z 35009KT 02/M01 A3015 RMK A01 T00201006  RH  084%=      5-min Rain = 0
KRRS 140850Z 35009KT 02/M01 A3015 RMK A01 T00201006  RH  084%=      5-min Rain = 0
KRRS 140855Z 35009KT 02/M01 A3016 RMK A01 T00201006  RH  084%=      5-min Rain = 0
KRRS 140900Z 35009KT 02/M01 A3016 RMK A01 T00191007  RH  084%=      5-min Rain = 0
KRRS 140905Z 35009KT 02/M01 A3016 RMK A01 T00191007  RH  084%=      5-min Rain = 0
KRRS 140910Z 36008KT 02/M01 A3016 RMK A01 T00181007  RH  084%=      5-min Rain = 0
KRRS 140915Z 35008KT 02/M01 A3016 RMK A01 T00181008  RH  084%=      5-min Rain = 0
KRRS 140920Z 36008KT 02/M01 A3017 RMK A01 T00171008  RH  084%=      5-min Rain = 0
KRRS 140925Z 00008KT 02/M01 A3017 RMK A01 T00171009  RH  084%=      5-min Rain = 0
KRRS 140930Z 36007KT 02/M01 A3017 RMK A01 T00161009  RH  084%=      5-min Rain = 0
KRRS 140935Z 35008KT 02/M01 A3017 RMK A01 T00161009  RH  084%=      5-min Rain = 0
KRRS 140940Z 35008KT 02/M01 A3017 RMK A01 T00161009  RH  084%=      5-min Rain = 0
KRRS 140945Z 35008KT 02/M01 A3017 RMK A01 T00151009  RH  085%=      5-min Rain = 0
KRRS 140950Z 35009KT 02/M01 A3017 RMK A01 T00151009  RH  085%=      5-min Rain = 0
KRRS 140955Z 35010KT 02/M01 A3017 RMK A01 T00161009  RH  084%=      5-min Rain = 0
KRRS 141000Z 35009KT 02/M01 A3018 RMK A01 T00161010  RH  084%=      5-min Rain = 0
KRRS 141005Z 35011KT 02/M01 A3018 RMK A01 T00161011  RH  083%=      5-min Rain = 0
KRRS 141010Z 35011KT 02/M01 A3018 RMK A01 T00161011  RH  083%=      5-min Rain = 0
KRRS 141015Z 35011KT 02/M01 A3018 RMK A01 T00151012  RH  083%=      5-min Rain = 0
KRRS 141020Z 35011KT 02/M01 A3018 RMK A01 T00161013  RH  082%=      5-min Rain = 0
KRRS 141025Z 35011KT 02/M01 A3018 RMK A01 T00161013  RH  082%=      5-min Rain = 0
KRRS 141030Z 35011KT 02/M01 A3019 RMK A01 T00181014  RH  080%=      5-min Rain = 0
KRRS 141035Z 35011KT 02/M01 A3019 RMK A01 T00201014  RH  079%=      5-min Rain = 0
KRRS 141040Z 36011G16KT 02/M02 A3019 RMK A01 T00201015  RH  078%=      5-min Rain = 0
KRRS 141045Z 36011G16KT 02/M02 A3019 RMK A01 T00201015  RH  078%=      5-min Rain = 0
KRRS 141050Z 00011KT 02/M02 A302 RMK A01 T00191016  RH  079%=      5-min Rain = 0
KRRS 141055Z 01011KT 02/M02 A302 RMK A01 T00191016  RH  078%=      5-min Rain = 0
KRRS 141100Z 00011KT 02/M02 A302 RMK A01 T00181016  RH  079%=      5-min Rain = 0
KRRS 141105Z 01011KT 02/M02 A302 RMK A01 T00181017  RH  079%=      5-min Rain = 0
KRRS 141110Z 01011KT 02/M02 A302 RMK A01 T00181017  RH  078%=      5-min Rain = 0
KRRS 141115Z 01011G16KT 02/M02 A302 RMK A01 T00181017  RH  078%=      5-min Rain = 0
KRRS 141120Z 01012KT 02/M02 A3021 RMK A01 T00191018  RH  077%=      5-min Rain = 0
KRRS 141125Z 01011G16KT 02/M02 A3021 RMK A01 T00201018  RH  077%=      5-min Rain = 0
KRRS 141130Z 01012G17KT 02/M02 A3021 RMK A01 T00211019  RH  076%=      5-min Rain = 0
KRRS 141135Z 01012KT 02/M02 A3021 RMK A01 T00211020  RH  075%=      5-min Rain = 0
KRRS 141140Z 01012KT 02/M02 A3022 RMK A01 T00211020  RH  075%=      5-min Rain = 0
KRRS 141145Z 01011KT 02/M02 A3022 RMK A01 T00201020  RH  075%=      5-min Rain = 0
KRRS 141150Z 01011KT 02/M02 A3022 RMK A01 T00181021  RH  076%=      5-min Rain = 0
KRRS 141155Z 01011G16KT 02/M02 A3023 RMK A01 T00191021  RH  075%=      5-min Rain = 0
KRRS 141200Z 01013KT 02/M02 A3023 RMK A01 T00201021  RH  075%=      5-min Rain = 0
KRRS 141205Z 01013G18KT 02/M02 A3023 RMK A01 T00201021  RH  075%=      5-min Rain = 0
KRRS 141210Z 01011KT 02/M02 A3024 RMK A01 T00201021  RH  075%=      5-min Rain = 0
KRRS 141215Z 01010KT 02/M02 A3024 RMK A01 T00191021  RH  075%=      5-min Rain = 0
KRRS 141220Z 02010KT 02/M02 A3024 RMK A01 T00181021  RH  075%=      5-min Rain = 0
KRRS 141225Z 02011KT 02/M02 A3025 RMK A01 T00191021  RH  075%=      5-min Rain = 0
KRRS 141230Z 02011KT 02/M02 A3025 RMK A01 T00191021  RH  075%=      5-min Rain = 0
KRRS 141235Z 02011KT 02/M02 A3025 RMK A01 T00191021  RH  075%=      5-min Rain = 0
KRRS 141240Z 02011KT 02/M02 A3025 RMK A01 T00191021  RH  075%=      5-min Rain = 0
KRRS 141245Z 01010KT 02/M02 A3026 RMK A01 T00181021  RH  076%=      5-min Rain = 0
KRRS 141250Z 02010KT 02/M02 A3026 RMK A01 T00171021  RH  076%=      5-min Rain = 0
KRRS 141255Z 02010KT 02/M02 A3026 RMK A01 T00171021  RH  076%=      5-min Rain = 0
KRRS 141300Z 02010KT 02/M02 A3027 RMK A01 T00171020  RH  077%=      5-min Rain = 0
KRRS 141305Z 02010KT 02/M02 A3028 RMK A01 T00171020  RH  077%=      5-min Rain = 0
KRRS 141310Z 02009KT 02/M02 A3028 RMK A01 T00161020  RH  078%=      5-min Rain = 0
KRRS 141315Z 02009KT 02/M02 A3028 RMK A01 T00161019  RH  078%=      5-min Rain = 0
KRRS 141320Z 02009KT 02/M02 A3029 RMK A01 T00151019  RH  079%=      5-min Rain = 0
KRRS 141325Z 02009KT 02/M02 A3029 RMK A01 T00151019  RH  079%=      5-min Rain = 0
KRRS 141330Z 02010KT 02/M02 A3029 RMK A01 T00161018  RH  079%=      5-min Rain = 0
KRRS 141335Z 01010KT 02/M02 A303 RMK A01 T00171016  RH  079%=      5-min Rain = 0
KRRS 141340Z 01010KT 02/M02 A303 RMK A01 T00181015  RH  079%=      5-min Rain = 0
KRRS 141345Z 01010KT 02/M02 A303 RMK A01 T00191015  RH  079%=      5-min Rain = 0
KRRS 141350Z 01010KT 02/M02 A303 RMK A01 T00211015  RH  078%=      5-min Rain = 0
KRRS 141355Z 01011KT 02/M01 A3031 RMK A01 T00231014  RH  077%=      5-min Rain = 0
KRRS 141400Z 01010KT 03/M01 A3031 RMK A01 T00251013  RH  077%=      5-min Rain = 0
KRRS 141405Z 01010KT 03/M01 A3032 RMK A01 T00271012  RH  076%=      5-min Rain = 0
KRRS 141410Z 01010KT 03/M01 A3032 RMK A01 T00291011  RH  076%=      5-min Rain = 0
KRRS 141415Z 01010KT 03/M01 A3032 RMK A01 T00321009  RH  076%=      5-min Rain = 0
KRRS 141420Z 01011KT 04/M01 A3032 RMK A01 T00351007  RH  075%=      5-min Rain = 0
KRRS 141425Z 01013KT 04/M01 A3032 RMK A01 T00371006  RH  074%=      5-min Rain = 0
KRRS 141430Z 02012KT 04/M01 A3033 RMK A01 T00391005  RH  074%=      5-min Rain = 0
KRRS 141435Z 02012G17KT 04/M00 A3033 RMK A01 T00411004  RH  073%=      5-min Rain = 0
KRRS 141440Z 02012G17KT 04/M00 A3033 RMK A01 T00421003  RH  073%=      5-min Rain = 0
KRRS 141445Z 02011G17KT 04/M00 A3034 RMK A01 T00441002  RH  073%=      5-min Rain = 0
KRRS 141450Z 03012KT 05/M00 A3034 RMK A01 T00461001  RH  072%=      5-min Rain = 0
KRRS 141455Z 02012G17KT 05/00 A3035 RMK A01 T004700-0  RH  072%=      5-min Rain = 0
KRRS 141500Z 02012G17KT 05/00 A3035 RMK A01 T00480000  RH  072%=      5-min Rain = 0
KRRS 141505Z 03011KT 05/00 A3035 RMK A01 T00490001  RH  072%=      5-min Rain = 0
KRRS 141510Z 03014KT 05/00 A3036 RMK A01 T00490001  RH  072%=      5-min Rain = 0
KRRS 141515Z 03011KT 05/00 A3036 RMK A01 T00510002  RH  072%=      5-min Rain = 0
KRRS 141520Z 03011KT 05/00 A3036 RMK A01 T00530003  RH  071%=      5-min Rain = 0
KRRS 141525Z 03011G17KT 06/00 A3036 RMK A01 T00560004  RH  070%=      5-min Rain = 0
KRRS 141530Z 03013KT 06/00 A3037 RMK A01 T00570004  RH  070%=      5-min Rain = 0
KRRS 141535Z 04011G18KT 06/01 A3037 RMK A01 T00590006  RH  070%=      5-min Rain = 0
KRRS 141540Z 03011KT 06/01 A3037 RMK A01 T00620007  RH  069%=      5-min Rain = 0
KRRS 141545Z 03014G20KT 07/01 A3037 RMK A01 T00650008  RH  068%=      5-min Rain = 0
KRRS 141550Z 04014KT 07/01 A3037 RMK A01 T00660008  RH  067%=      5-min Rain = 0
KRRS 141555Z 04013KT 07/01 A3038 RMK A01 T00670008  RH  067%=      5-min Rain = 0
KRRS 141600Z 03013G18KT 07/01 A3038 RMK A01 T00690008  RH  066%=      5-min Rain = 0
KRRS 141605Z 03014KT 07/01 A3038 RMK A01 T00700007  RH  065%=      5-min Rain = 0
KRRS 141610Z 03014G19KT 07/01 A3038 RMK A01 T00710007  RH  065%=      5-min Rain = 0
KRRS 141615Z 03014KT 07/01 A3038 RMK A01 T00700005  RH  064%=      5-min Rain = 0
KRRS 141620Z 02013G18KT 07/01 A3039 RMK A01 T00710006  RH  064%=      5-min Rain = 0
KRRS 141625Z 03013G19KT 07/01 A3039 RMK A01 T00730006  RH  063%=      5-min Rain = 0
KRRS 141630Z 03015KT 08/01 A3039 RMK A01 T00750005  RH  062%=      5-min Rain = 0
KRRS 141635Z 03013G18KT 08/01 A3039 RMK A01 T00760006  RH  062%=      5-min Rain = 0
KRRS 141640Z 04014G19KT 08/01 A3039 RMK A01 T00770006  RH  061%=      5-min Rain = 0
KRRS 141645Z 04014G19KT 08/01 A3039 RMK A01 T00790006  RH  061%=      5-min Rain = 0
KRRS 141650Z 04014G20KT 08/01 A3039 RMK A01 T00800006  RH  060%=      5-min Rain = 0
KRRS 141655Z 04013G21KT 08/01 A3039 RMK A01 T00820006  RH  060%=      5-min Rain = 0
KRRS 141700Z 03014KT 08/01 A3039 RMK A01 T00840006  RH  058%=      5-min Rain = 0
KRRS 141705Z 03013G18KT 09/01 A3039 RMK A01 T00850006  RH  058%=      5-min Rain = 0
KRRS 141710Z 03014G22KT 09/01 A3039 RMK A01 T00870005  RH  057%=      5-min Rain = 0
KRRS 141715Z 03015G23KT 09/00 A3039 RMK A01 T00880004  RH  056%=      5-min Rain = 0
KRRS 141720Z 03015KT 09/00 A3039 RMK A01 T00860003  RH  057%=      5-min Rain = 0
KRRS 141725Z 04014G20KT 09/00 A3039 RMK A01 T00880004  RH  056%=      5-min Rain = 0
KRRS 141730Z 04014KT 09/00 A3039 RMK A01 T00910004  RH  055%=      5-min Rain = 0
KRRS 141735Z 04013G19KT 09/00 A3039 RMK A01 T00900004  RH  056%=      5-min Rain = 0
KRRS 141740Z 05014KT 09/00 A3039 RMK A01 T00900004  RH  055%=      5-min Rain = 0
KRRS 141745Z 05015G20KT 09/00 A3039 RMK A01 T00890004  RH  056%=      5-min Rain = 0
KRRS 141750Z 05013KT 09/01 A3039 RMK A01 T00900005  RH  056%=      5-min Rain = 0
KRRS 141755Z 05012G17KT 09/01 A3039 RMK A01 T00930006  RH  055%=      5-min Rain = 0
KRRS 141800Z 04013G19KT 09/00 A3039 RMK A01 T00930004  RH  055%=      5-min Rain = 0
KRRS 141805Z 04011G16KT 09/01 A3039 RMK A01 T00920005  RH  055%=      5-min Rain = 0
KRRS 141810Z 02010KT 10/01 A3039 RMK A01 T01000008  RH  053%=      5-min Rain = 0
KRRS 141815Z 04012KT 10/01 A3039 RMK A01 T00990007  RH  053%=      5-min Rain = 0
KRRS 141820Z 03011KT 10/01 A3039 RMK A01 T00980006  RH  054%=      5-min Rain = 0
KRRS 141825Z 03011G17KT 10/01 A3038 RMK A01 T00980006  RH  054%=      5-min Rain = 0
KRRS 141830Z 05010KT 10/01 A3038 RMK A01 T00980007  RH  054%=      5-min Rain = 0
KRRS 141835Z 03010KT 10/01 A3038 RMK A01 T01000007  RH  053%=      5-min Rain = 0
KRRS 141840Z 04011KT 10/01 A3038 RMK A01 T01020007  RH  052%=      5-min Rain = 0
KRRS 141845Z 05008KT 10/01 A3038 RMK A01 T01000006  RH  053%=      5-min Rain = 0
KRRS 141850Z 03010G15KT 10/01 A3038 RMK A01 T01030007  RH  052%=      5-min Rain = 0
KRRS 141855Z 04011G17KT 11/01 A3038 RMK A01 T01050008  RH  052%=      5-min Rain = 0
KRRS 141900Z 04012KT 11/01 A3037 RMK A01 T01050006  RH  051%=      5-min Rain = 0
KRRS 141905Z 04011KT 11/01 A3037 RMK A01 T01070007  RH  051%=      5-min Rain = 0
KRRS 141910Z 03011G17KT 11/01 A3037 RMK A01 T01060006  RH  051%=      5-min Rain = 0
KRRS 141915Z 03012G17KT 11/01 A3037 RMK A01 T01060006  RH  051%=      5-min Rain = 0
KRRS 141920Z 05010G15KT 11/01 A3037 RMK A01 T01070007  RH  051%=      5-min Rain = 0
KRRS 141925Z 03010G15KT 11/01 A3036 RMK A01 T01080007  RH  050%=      5-min Rain = 0
KRRS 141930Z 05011KT 11/01 A3036 RMK A01 T01080006  RH  050%=      5-min Rain = 0
KRRS 141935Z 05010G15KT 11/01 A3036 RMK A01 T01100007  RH  050%=      5-min Rain = 0
KRRS 141940Z 05012KT 11/01 A3036 RMK A01 T01080006  RH  050%=      5-min Rain = 0
KRRS 141945Z 06009G14KT 11/01 A3036 RMK A01 T01100007  RH  050%=      5-min Rain = 0
KRRS 141950Z 06011G16KT 11/01 A3036 RMK A01 T01110007  RH  049%=      5-min Rain = 0
KRRS 141955Z 04011G17KT 11/01 A3036 RMK A01 T01120006  RH  049%=      5-min Rain = 0
KRRS 142000Z 03008G14KT 11/01 A3036 RMK A01 T01100005  RH  049%=      5-min Rain = 0
KRRS 142005Z 04009G15KT 11/01 A3036 RMK A01 T01120007  RH  049%=      5-min Rain = 0
KRRS 142010Z 02011KT 12/01 A3036 RMK A01 T01150006  RH  048%=      5-min Rain = 0
KRRS 142015Z 04011G16KT 11/01 A3036 RMK A01 T01130006  RH  048%=      5-min Rain = 0
KRRS 142020Z 05009G14KT 11/01 A3036 RMK A01 T01110005  RH  049%=      5-min Rain = 0
KRRS 142025Z 04009G14KT 11/01 A3035 RMK A01 T01110006  RH  049%=      5-min Rain = 0
KRRS 142030Z 04011KT 11/01 A3035 RMK A01 T01130006  RH  048%=      5-min Rain = 0
KRRS 142035Z 03009KT 11/01 A3035 RMK A01 T01130006  RH  048%=      5-min Rain = 0
KRRS 142040Z 05006KT 12/01 A3035 RMK A01 T01160008  RH  048%=      5-min Rain = 0
KRRS 142045Z 05009KT 12/01 A3035 RMK A01 T01160006  RH  048%=      5-min Rain = 0
KRRS 142050Z 02008KT 11/01 A3035 RMK A01 T01140006  RH  048%=      5-min Rain = 0
KRRS 142055Z 04010G16KT 12/01 A3035 RMK A01 T01160006  RH  047%=      5-min Rain = 0
KRRS 142100Z 05008G14KT 12/01 A3035 RMK A01 T01150005  RH  047%=      5-min Rain = 0
KRRS 142105Z 06009KT 12/01 A3035 RMK A01 T01160006  RH  048%=      5-min Rain = 0
KRRS 142110Z 05009KT 12/01 A3035 RMK A01 T01170006  RH  047%=      5-min Rain = 0
KRRS 142115Z 04006G14KT 11/01 A3035 RMK A01 T01130005  RH  048%=      5-min Rain = 0
KRRS 142120Z 03007KT 11/01 A3035 RMK A01 T01140005  RH  048%=      5-min Rain = 0
KRRS 142125Z 05009KT 12/01 A3035 RMK A01 T01160006  RH  047%=      5-min Rain = 0
KRRS 142130Z 05008G13KT 12/01 A3035 RMK A01 T01180006  RH  047%=      5-min Rain = 0
KRRS 142135Z 04009KT 12/01 A3035 RMK A01 T01170005  RH  047%=      5-min Rain = 0
KRRS 142140Z 05010KT 12/01 A3035 RMK A01 T01150005  RH  047%=      5-min Rain = 0
KRRS 142145Z 06008G13KT 12/01 A3035 RMK A01 T01150006  RH  048%=      5-min Rain = 0
KRRS 142150Z 05007KT 12/01 A3035 RMK A01 T01150005  RH  048%=      5-min Rain = 0
KRRS 142155Z 05008KT 12/01 A3035 RMK A01 T01150005  RH  047%=      5-min Rain = 0
KRRS 142200Z 05009KT 12/01 A3035 RMK A01 T01160005  RH  047%=      5-min Rain = 0
KRRS 142205Z 04009KT 12/01 A3035 RMK A01 T01160005  RH  047%=      5-min Rain = 0
KRRS 142210Z 03008KT 12/00 A3035 RMK A01 T01150004  RH  047%=      5-min Rain = 0
KRRS 142215Z 04007KT 12/01 A3035 RMK A01 T01150005  RH  047%=      5-min Rain = 0
KRRS 142220Z 05005KT 12/01 A3035 RMK A01 T01150005  RH  047%=      5-min Rain = 0
KRRS 142225Z 04006KT 12/01 A3035 RMK A01 T01150005  RH  047%=      5-min Rain = 0
KRRS 142230Z 04007KT 12/00 A3035 RMK A01 T01150004  RH  047%=      5-min Rain = 0
KRRS 142235Z 06006KT 11/01 A3035 RMK A01 T01140005  RH  048%=      5-min Rain = 0
KRRS 142240Z 06006KT 11/01 A3035 RMK A01 T01140005  RH  048%=      5-min Rain = 0
KRRS 142245Z 06006KT 11/00 A3035 RMK A01 T01120004  RH  048%=      5-min Rain = 0
KRRS 142250Z 06007KT 11/00 A3035 RMK A01 T01100004  RH  048%=      5-min Rain = 0
KRRS 142255Z 04008KT 11/00 A3035 RMK A01 T01090003  RH  049%=      5-min Rain = 0
KRRS 142300Z 04007KT 11/00 A3036 RMK A01 T01080003  RH  049%=      5-min Rain = 0
KRRS 142305Z 06006KT 11/00 A3036 RMK A01 T01060003  RH  049%=      5-min Rain = 0
KRRS 142310Z 07005KT 11/00 A3036 RMK A01 T01050002  RH  050%=      5-min Rain = 0
KRRS 142315Z 07004KT 10/00 A3036 RMK A01 T01020002  RH  050%=      5-min Rain = 0
KRRS 142320Z 06005KT 10/00 A3036 RMK A01 T01000002  RH  051%=      5-min Rain = 0
KRRS 142325Z 06005KT 10/00 A3036 RMK A01 T00970002  RH  052%=      5-min Rain = 0
KRRS 142330Z 06004KT 09/00 A3036 RMK A01 T00940001  RH  053%=      5-min Rain = 0
KRRS 142335Z 07005KT 09/00 A3036 RMK A01 T00910000  RH  054%=      5-min Rain = 0
KRRS 142340Z 06004KT 09/00 A3036 RMK A01 T008800-0  RH  054%=      5-min Rain = 0
KRRS 142345Z 07004KT 09/00 A3037 RMK A01 T008700-0  RH  055%=      5-min Rain = 0
KRRS 142350Z 07004KT 09/00 A3037 RMK A01 T008700-0  RH  055%=      5-min Rain = 0
KRRS 142355Z 07005KT 09/M00 A3037 RMK A01 T00871001  RH  055%=      5-min Rain = 0
KRRS 150000Z 07005KT 09/M00 A3037 RMK A01 T00851001  RH  055%=      5-min Rain = 0
KRRS 150005Z 07004KT 08/M00 A3037 RMK A01 T00841001  RH  055%=      5-min Rain = 0
KRRS 150010Z 08004KT 08/M00 A3037 RMK A01 T00841001  RH  056%=      5-min Rain = 0
KRRS 150015Z 08003KT 08/M00 A3037 RMK A01 T00821001  RH  056%=      5-min Rain = 0
KRRS 150020Z 08003KT 08/M00 A3038 RMK A01 T00811001  RH  057%=      5-min Rain = 0
KRRS 150025Z 09002KT 08/M00 A3038 RMK A01 T00801002  RH  057%=      5-min Rain = 0
KRRS 150030Z 10002KT 08/M00 A3038 RMK A01 T00781002  RH  057%=      5-min Rain = 0
KRRS 150035Z 09002KT 08/M00 A3038 RMK A01 T00761002  RH  058%=      5-min Rain = 0
KRRS 150040Z 09002KT 08/M00 A3038 RMK A01 T00751001  RH  059%=      5-min Rain = 0
KRRS 150045Z 10002KT 08/M00 A3039 RMK A01 T00771001  RH  058%=      5-min Rain = 0
KRRS 150050Z 10002KT 08/M00 A3039 RMK A01 T00761001  RH  059%=      5-min Rain = 0
KRRS 150055Z 10002KT 08/M00 A3039 RMK A01 T00771001  RH  059%=      5-min Rain = 0
KRRS 150100Z 09002KT 08/M00 A3039 RMK A01 T00771001  RH  058%=      5-min Rain = 0
KRRS 150105Z 10002KT 08/M00 A3039 RMK A01 T00781001  RH  058%=      5-min Rain = 0
KRRS 150110Z 11002KT 08/M00 A3039 RMK A01 T00771002  RH  058%=      5-min Rain = 0
KRRS 150115Z 11001KT 08/M00 A3039 RMK A01 T00751002  RH  059%=      5-min Rain = 0
KRRS 150120Z 11002KT 07/M00 A3039 RMK A01 T00741002  RH  059%=      5-min Rain = 0
KRRS 150125Z 10002KT 08/M00 A304 RMK A01 T00751001  RH  059%=      5-min Rain = 0
KRRS 150130Z 11002KT 07/M00 A304 RMK A01 T00741002  RH  059%=      5-min Rain = 0
KRRS 150135Z 11002KT 07/M00 A304 RMK A01 T00741002  RH  059%=      5-min Rain = 0
KRRS 150140Z 12002KT 07/M00 A304 RMK A01 T00741002  RH  059%=      5-min Rain = 0
KRRS 150145Z 13001KT 07/M00 A304 RMK A01 T00711003  RH  060%=      5-min Rain = 0
KRRS 150150Z 14001KT 07/M00 A304 RMK A01 T00701003  RH  061%=      5-min Rain = 0
KRRS 150155Z 24001KT 07/M01 A304 RMK A01 T00651005  RH  062%=      5-min Rain = 0
KRRS 150200Z 25003KT 05/M01 A304 RMK A01 T00531006  RH  067%=      5-min Rain = 0
KRRS 150205Z 25004KT 05/M01 A304 RMK A01 T00461007  RH  069%=      5-min Rain = 0
KRRS 150210Z 26003KT 04/M01 A304 RMK A01 T00411006  RH  072%=      5-min Rain = 0
KRRS 150215Z 26003KT 04/M01 A304 RMK A01 T00371006  RH  074%=      5-min Rain = 0
KRRS 150220Z 26003KT 04/M01 A3041 RMK A01 T00361005  RH  075%=      5-min Rain = 0
KRRS 150225Z 26004KT 04/M01 A3041 RMK A01 T00361005  RH  075%=      5-min Rain = 0
KRRS 150230Z 25004KT 04/M01 A3041 RMK A01 T00351006  RH  075%=      5-min Rain = 0
KRRS 150235Z 26005KT 03/M01 A3041 RMK A01 T00341006  RH  076%=      5-min Rain = 0
KRRS 150240Z 26004KT 03/M01 A3041 RMK A01 T00331005  RH  077%=      5-min Rain = 0
KRRS 150245Z 26004KT 03/M01 A3041 RMK A01 T00311005  RH  078%=      5-min Rain = 0
KRRS 150250Z 25003KT 03/M00 A3041 RMK A01 T00331004  RH  077%=      5-min Rain = 0
KRRS 150255Z 24003KT 03/M01 A3041 RMK A01 T00331005  RH  077%=      5-min Rain = 0
KRRS 150300Z 25004KT 03/M01 A3041 RMK A01 T00341005  RH  076%=      5-min Rain = 0
KRRS 150305Z 26005KT 03/M01 A3041 RMK A01 T00331005  RH  077%=      5-min Rain = 0
KRRS 150310Z 26005KT 03/M01 A3041 RMK A01 T00321005  RH  078%=      5-min Rain = 0
KRRS 150315Z 26006KT 03/M01 A3042 RMK A01 T00301006  RH  079%=      5-min Rain = 0
KRRS 150320Z 26006KT 03/M01 A3042 RMK A01 T00271006  RH  080%=      5-min Rain = 0
KRRS 150325Z 26006KT 03/M01 A3042 RMK A01 T00271005  RH  080%=      5-min Rain = 0
KRRS 150330Z 26006KT 03/M01 A3042 RMK A01 T00261006  RH  080%=      5-min Rain = 0
KRRS 150335Z 26006KT 02/M01 A3042 RMK A01 T00241007  RH  081%=      5-min Rain = 0
KRRS 150340Z 25006KT 02/M01 A3042 RMK A01 T00241006  RH  081%=      5-min Rain = 0
KRRS 150345Z 25006KT 02/M01 A3042 RMK A01 T00231007  RH  081%=      5-min Rain = 0
KRRS 150350Z 25006KT 03/M01 A3042 RMK A01 T00251006  RH  081%=      5-min Rain = 0
KRRS 150355Z 26006KT 03/M01 A3042 RMK A01 T00261006  RH  080%=      5-min Rain = 0
KRRS 150400Z 25006KT 03/M01 A3043 RMK A01 T00251006  RH  081%=      5-min Rain = 0
KRRS 150405Z 25006KT 02/M01 A3042 RMK A01 T00241006  RH  081%=      5-min Rain = 0
KRRS 150410Z 24005KT 02/M01 A3042 RMK A01 T00231007  RH  081%=      5-min Rain = 0
KRRS 150415Z 24004KT 03/M01 A3042 RMK A01 T00251006  RH  081%=      5-min Rain = 0
KRRS 150420Z 24005KT 03/M01 A3042 RMK A01 T00261006  RH  080%=      5-min Rain = 0
KRRS 150425Z 24005KT 03/M01 A3042 RMK A01 T00251007  RH  080%=      5-min Rain = 0
KRRS 150430Z 24005KT 03/M01 A3042 RMK A01 T00261006  RH  080%=      5-min Rain = 0
KRRS 150435Z 24005KT 03/M01 A3042 RMK A01 T00261006  RH  080%=      5-min Rain = 0
KRRS 150440Z 24005KT 03/M01 A3042 RMK A01 T00261006  RH  080%=      5-min Rain = 0
KRRS 150445Z 24006KT 03/M01 A3042 RMK A01 T00251007  RH  081%=      5-min Rain = 0
KRRS 150450Z 24005KT 03/M01 A3042 RMK A01 T00251007  RH  081%=      5-min Rain = 0
KRRS 150455Z 24006KT 02/M01 A3042 RMK A01 T00241007  RH  081%=      5-min Rain = 0
KRRS 150500Z 24006KT 02/M01 A3042 RMK A01 T00211008  RH  082%=      5-min Rain = 0
KRRS 150505Z 24006KT 02/M01 A3042 RMK A01 T00191008  RH  083%=      5-min Rain = 0
KRRS 150510Z 24006KT 02/M01 A3042 RMK A01 T00171008  RH  084%=      5-min Rain = 0
KRRS 150515Z 24006KT 02/M01 A3042 RMK A01 T00171009  RH  084%=      5-min Rain = 0
KRRS 150520Z 24006KT 02/M01 A3042 RMK A01 T00161009  RH  084%=      5-min Rain = 0
KRRS 150525Z 24007KT 02/M01 A3042 RMK A01 T00151009  RH  085%=      5-min Rain = 0
KRRS 150530Z 24006KT 02/M01 A3042 RMK A01 T00151009  RH  085%=      5-min Rain = 0
KRRS 150535Z 24007KT 01/M01 A3042 RMK A01 T00141009  RH  085%=      5-min Rain = 0
KRRS 150540Z 25007KT 01/M01 A3042 RMK A01 T00141009  RH  086%=      5-min Rain = 0
KRRS 150545Z 24007KT 01/M01 A3042 RMK A01 T00141009  RH  086%=      5-min Rain = 0
KRRS 150550Z 24007KT 02/M01 A3042 RMK A01 T00151008  RH  085%=      5-min Rain = 0
KRRS 150555Z 24007KT 02/M01 A3042 RMK A01 T00171008  RH  085%=      5-min Rain = 0

Page generated in 0.009 seconds.